Forside
METAR-TAF:

METAR-TAF

Lufthavne :

N'Djamena internationale lufthavn

N'Djamena, Tchad

Breddekreds: 12-08N, længdekreds: 015-02E, højde: 295 m

Aktuelle vejr

Denne rapport blev lavet for 1 time og 22 minutter siden, kl. 11:00 UTC
Vind 9 kt fra nord
Temperatur 35°C
Fugtighed 7%
Tryk 1011 hPa
Sigt 10 km eller mere
ingen skyer under 1500m og ingen cumulonimbus

METAR: FTTJ 221100Z 01009KT CAVOK 35/M05 Q1011 NOSIG

Tid: 13:22 (12:22 UTC)

Vejrudsigter

Denne rapport blev lavet for 1 time og 22 minutter siden, kl. 11:00 UTC
Foreløbig gælder fra 22 på 12 UTC til 23 på 18 UTC
Vind 10 kt fra nord
Sigt 10 km eller mere
ingen skyer under 1500m og ingen cumulonimbus
ændring
fra 22 på 15 UTC til 22 på 16 UTC
Vind 5 kt fra varierende retninger
ændring
fra 23 på 06 UTC til 23 på 07 UTC
Vind 10 kt fra øst

TAF: FTTJ 221100Z 2212/2318 01010KT CAVOK BECMG 2215/2216 VRB05KT BECMG 2306/2307 08010KT

Vejrobservationer og prognoser fra mere end 4000 lufthavne (METAR og TAF).

De gule og røde prikker repræsenterer de meteorologiske stationer.

Flyt musen over at se navnet på stationen.

Så klik over at se vejr observationer og prognoser.

At skifte det kort: Klik på de grønne knapper med et sort kors for at zoome ind; på den grønne knap med en bindestreg for at zoome ud; eller på de grønne pile for tilstødende kort.


METAR-TAF: